Portada
METAR-TAF:

METAR-TAF

Aeroports :

Zonguldak, Turquia

latitud: 41-27N, longitud: 031-48E, altitud: 136 m

Observació

L'informe es va fer fa 14 hores i 54 minuts, a les 13:50 UTC
Vent 8 kt del Nord
Temperatura 28°C
Humitat 45%
Pressió 1011 hPa
Visibilitat 10 km o més
sense núvols per sota de 1500 mi sense presència de cumulonimbus.

METAR: LTAS 031350Z 35008KT CAVOK 28/15 Q1011

Hora: 07:44 (04:44 UTC)

Pronòstic

L'informe es va fer fa 3 hores i 4 minuts, a les 01:40 UTC
Pronòstic vàlid del 04 a les 03 UTC al 04 a les 12 UTC
Vent 2 kt amb direcció variable
Visibilitat 10 km o més
sense núvols per sota de 1500 mi sense presència de cumulonimbus.
Evolucionant progressivament
l' 04 a les 07 UTC al 04 a les 09 UTC
Escasses núvols a una alçada de 4000 ft

TAF: LTAS 040140Z 0403/0412 VRB02KT CAVOK BECMG 0407/0409 FEW040

Observacions i pronòstics meteorològics de més de 4000 aeroports (METAR i TAF).

Les estacions disponibles són els punts grocs i vermells al mapa.

Posi el ratolí al punt desitjat per veure el nom de l'estació.

Feu clic per veure les observacions i els pronòstics meteorològics.

Per canviar el mapa: feu clic els botons verds amb una creu de color negre per apropar; al botó verd amb un guió per allunyar la imatge; o en les fletxes verdes per a mapes adjacents.


METAR-TAF: